sensor_id;sensor_type;location;lat;lon;timestamp;temperature;humidity
67182;DHT22;54114;53.524;49.396;2023-02-28T00:01:27;2.50;60.30
67182;DHT22;54114;53.524;49.396;2023-02-28T00:03:53;2.50;60.20
67182;DHT22;54114;53.524;49.396;2023-02-28T00:06:20;2.50;60.50
67182;DHT22;54114;53.524;49.396;2023-02-28T00:08:47;2.40;60.50
67182;DHT22;54114;53.524;49.396;2023-02-28T00:11:16;2.40;60.80
67182;DHT22;54114;53.524;49.396;2023-02-28T00:13:45;2.40;60.80
67182;DHT22;54114;53.524;49.396;2023-02-28T00:16:19;2.40;61.00
67182;DHT22;54114;53.524;49.396;2023-02-28T00:18:49;2.30;61.20
67182;DHT22;54114;53.524;49.396;2023-02-28T00:21:17;2.30;61.60
67182;DHT22;54114;53.524;49.396;2023-02-28T00:23:47;2.30;61.70
67182;DHT22;54114;53.524;49.396;2023-02-28T00:26:13;2.40;61.90
67182;DHT22;54114;53.524;49.396;2023-02-28T00:28:43;2.40;61.80
67182;DHT22;54114;53.524;49.396;2023-02-28T00:31:09;2.40;61.70
67182;DHT22;54114;53.524;49.396;2023-02-28T00:33:36;2.30;61.80
67182;DHT22;54114;53.524;49.396;2023-02-28T00:36:09;2.30;61.90
67182;DHT22;54114;53.524;49.396;2023-02-28T00:38:37;2.30;62.00
67182;DHT22;54114;53.524;49.396;2023-02-28T00:41:04;2.30;62.10
67182;DHT22;54114;53.524;49.396;2023-02-28T00:43:33;2.30;62.10
67182;DHT22;54114;53.524;49.396;2023-02-28T00:46:01;2.30;62.20
67182;DHT22;54114;53.524;49.396;2023-02-28T00:48:28;2.30;62.20
67182;DHT22;54114;53.524;49.396;2023-02-28T00:50:54;2.30;62.30
67182;DHT22;54114;53.524;49.396;2023-02-28T00:53:25;2.30;62.20
67182;DHT22;54114;53.524;49.396;2023-02-28T00:55:52;2.30;62.30
67182;DHT22;54114;53.524;49.396;2023-02-28T00:58:21;2.30;62.40
67182;DHT22;54114;53.524;49.396;2023-02-28T01:00:53;2.30;62.50
67182;DHT22;54114;53.524;49.396;2023-02-28T01:03:20;2.30;62.50
67182;DHT22;54114;53.524;49.396;2023-02-28T01:05:50;2.30;62.60
67182;DHT22;54114;53.524;49.396;2023-02-28T01:08:21;2.30;62.70
67182;DHT22;54114;53.524;49.396;2023-02-28T01:10:48;2.30;62.40
67182;DHT22;54114;53.524;49.396;2023-02-28T01:13:15;2.30;62.20
67182;DHT22;54114;53.524;49.396;2023-02-28T01:15:48;2.30;62.60
67182;DHT22;54114;53.524;49.396;2023-02-28T01:18:17;2.40;62.80
67182;DHT22;54114;53.524;49.396;2023-02-28T01:20:44;2.30;62.80
67182;DHT22;54114;53.524;49.396;2023-02-28T01:23:14;2.40;63.00
67182;DHT22;54114;53.524;49.396;2023-02-28T01:25:40;2.40;62.80
67182;DHT22;54114;53.524;49.396;2023-02-28T01:28:07;2.30;62.90
67182;DHT22;54114;53.524;49.396;2023-02-28T01:30:34;2.30;62.60
67182;DHT22;54114;53.524;49.396;2023-02-28T01:33:05;2.30;62.60
67182;DHT22;54114;53.524;49.396;2023-02-28T01:35:33;2.30;62.70
67182;DHT22;54114;53.524;49.396;2023-02-28T01:38:03;2.30;62.70
67182;DHT22;54114;53.524;49.396;2023-02-28T01:40:32;2.30;62.70
67182;DHT22;54114;53.524;49.396;2023-02-28T01:42:58;2.30;63.00
67182;DHT22;54114;53.524;49.396;2023-02-28T01:45:30;2.40;62.90
67182;DHT22;54114;53.524;49.396;2023-02-28T01:48:02;2.30;62.90
67182;DHT22;54114;53.524;49.396;2023-02-28T01:50:34;2.40;62.90
67182;DHT22;54114;53.524;49.396;2023-02-28T01:53:07;2.40;62.80
67182;DHT22;54114;53.524;49.396;2023-02-28T01:55:47;2.40;62.70
67182;DHT22;54114;53.524;49.396;2023-02-28T01:58:18;2.30;62.60
67182;DHT22;54114;53.524;49.396;2023-02-28T02:00:50;2.30;62.10
67182;DHT22;54114;53.524;49.396;2023-02-28T02:03:20;2.30;62.20
67182;DHT22;54114;53.524;49.396;2023-02-28T02:05:49;2.30;62.10
67182;DHT22;54114;53.524;49.396;2023-02-28T02:08:25;2.30;62.00
67182;DHT22;54114;53.524;49.396;2023-02-28T02:10:55;2.30;62.00
67182;DHT22;54114;53.524;49.396;2023-02-28T02:16:41;2.30;61.30
67182;DHT22;54114;53.524;49.396;2023-02-28T02:22:21;2.20;61.50
67182;DHT22;54114;53.524;49.396;2023-02-28T02:40:56;2.00;59.90
67182;DHT22;54114;53.524;49.396;2023-02-28T02:43:34;2.00;60.20
67182;DHT22;54114;53.524;49.396;2023-02-28T02:46:16;2.00;60.30
67182;DHT22;54114;53.524;49.396;2023-02-28T02:48:54;2.00;59.80
67182;DHT22;54114;53.524;49.396;2023-02-28T02:51:24;2.00;59.70
67182;DHT22;54114;53.524;49.396;2023-02-28T02:54:17;2.00;59.60
67182;DHT22;54114;53.524;49.396;2023-02-28T02:57:00;2.00;59.40
67182;DHT22;54114;53.524;49.396;2023-02-28T02:59:31;2.00;59.60
67182;DHT22;54114;53.524;49.396;2023-02-28T03:02:02;2.00;59.80
67182;DHT22;54114;53.524;49.396;2023-02-28T03:04:35;2.00;59.80
67182;DHT22;54114;53.524;49.396;2023-02-28T03:07:15;2.00;60.10
67182;DHT22;54114;53.524;49.396;2023-02-28T03:09:53;1.90;60.10
67182;DHT22;54114;53.524;49.396;2023-02-28T03:12:28;2.00;60.60
67182;DHT22;54114;53.524;49.396;2023-02-28T03:15:21;2.00;60.50
67182;DHT22;54114;53.524;49.396;2023-02-28T03:18:08;2.00;60.60
67182;DHT22;54114;53.524;49.396;2023-02-28T03:21:04;2.00;60.60
67182;DHT22;54114;53.524;49.396;2023-02-28T03:24:05;2.00;61.00
67182;DHT22;54114;53.524;49.396;2023-02-28T03:26:45;2.00;60.60
67182;DHT22;54114;53.524;49.396;2023-02-28T03:32:19;2.00;60.10
67182;DHT22;54114;53.524;49.396;2023-02-28T03:35:16;2.00;60.10
67182;DHT22;54114;53.524;49.396;2023-02-28T03:37:53;1.90;59.70
67182;DHT22;54114;53.524;49.396;2023-02-28T03:40:29;1.90;59.70
67182;DHT22;54114;53.524;49.396;2023-02-28T03:43:01;1.90;60.00
67182;DHT22;54114;53.524;49.396;2023-02-28T03:45:33;1.90;60.00
67182;DHT22;54114;53.524;49.396;2023-02-28T03:48:21;1.90;60.20
67182;DHT22;54114;53.524;49.396;2023-02-28T03:50:55;1.90;60.20
67182;DHT22;54114;53.524;49.396;2023-02-28T03:53:37;1.90;60.40
67182;DHT22;54114;53.524;49.396;2023-02-28T03:56:11;1.90;60.70
67182;DHT22;54114;53.524;49.396;2023-02-28T03:58:51;1.90;60.10
67182;DHT22;54114;53.524;49.396;2023-02-28T04:01:45;1.90;60.00
67182;DHT22;54114;53.524;49.396;2023-02-28T04:04:14;1.90;60.00
67182;DHT22;54114;53.524;49.396;2023-02-28T04:06:42;1.90;60.10
67182;DHT22;54114;53.524;49.396;2023-02-28T04:09:12;1.90;59.90
67182;DHT22;54114;53.524;49.396;2023-02-28T04:11:45;1.90;60.20
67182;DHT22;54114;53.524;49.396;2023-02-28T04:14:24;1.90;60.30
67182;DHT22;54114;53.524;49.396;2023-02-28T04:16:51;1.90;60.50
67182;DHT22;54114;53.524;49.396;2023-02-28T04:19:18;1.90;60.60
67182;DHT22;54114;53.524;49.396;2023-02-28T04:21:50;1.90;60.60
67182;DHT22;54114;53.524;49.396;2023-02-28T04:24:25;1.90;60.70
67182;DHT22;54114;53.524;49.396;2023-02-28T04:26:54;2.00;61.00
67182;DHT22;54114;53.524;49.396;2023-02-28T04:29:26;2.00;61.90
67182;DHT22;54114;53.524;49.396;2023-02-28T04:31:56;2.00;61.00
67182;DHT22;54114;53.524;49.396;2023-02-28T04:34:30;2.00;60.80
67182;DHT22;54114;53.524;49.396;2023-02-28T04:37:00;2.10;60.60
67182;DHT22;54114;53.524;49.396;2023-02-28T04:39:36;2.10;60.50
67182;DHT22;54114;53.524;49.396;2023-02-28T04:42:03;2.10;60.70
67182;DHT22;54114;53.524;49.396;2023-02-28T04:44:32;2.10;60.40
67182;DHT22;54114;53.524;49.396;2023-02-28T04:46:59;2.10;60.60
67182;DHT22;54114;53.524;49.396;2023-02-28T04:49:28;2.10;60.30
67182;DHT22;54114;53.524;49.396;2023-02-28T04:51:57;2.10;60.40
67182;DHT22;54114;53.524;49.396;2023-02-28T04:54:30;2.10;60.50
67182;DHT22;54114;53.524;49.396;2023-02-28T04:56:59;2.10;60.70
67182;DHT22;54114;53.524;49.396;2023-02-28T04:59:28;2.10;60.80
67182;DHT22;54114;53.524;49.396;2023-02-28T05:02:01;2.10;61.10
67182;DHT22;54114;53.524;49.396;2023-02-28T05:04:33;2.20;61.30
67182;DHT22;54114;53.524;49.396;2023-02-28T05:07:03;2.20;61.30
67182;DHT22;54114;53.524;49.396;2023-02-28T05:09:32;2.30;61.10
67182;DHT22;54114;53.524;49.396;2023-02-28T05:12:01;2.30;61.10
67182;DHT22;54114;53.524;49.396;2023-02-28T05:14:27;2.40;61.10
67182;DHT22;54114;53.524;49.396;2023-02-28T05:16:56;2.40;60.90
67182;DHT22;54114;53.524;49.396;2023-02-28T05:19:26;2.40;60.80
67182;DHT22;54114;53.524;49.396;2023-02-28T05:21:54;2.50;60.50
67182;DHT22;54114;53.524;49.396;2023-02-28T05:24:21;2.50;60.30
67182;DHT22;54114;53.524;49.396;2023-02-28T05:26:52;2.50;60.20
67182;DHT22;54114;53.524;49.396;2023-02-28T05:29:20;2.60;60.00
67182;DHT22;54114;53.524;49.396;2023-02-28T05:31:47;2.60;59.60
67182;DHT22;54114;53.524;49.396;2023-02-28T05:34:14;2.60;59.20
67182;DHT22;54114;53.524;49.396;2023-02-28T05:36:46;2.70;58.90
67182;DHT22;54114;53.524;49.396;2023-02-28T05:39:17;2.70;59.10
67182;DHT22;54114;53.524;49.396;2023-02-28T05:41:44;2.80;58.90
67182;DHT22;54114;53.524;49.396;2023-02-28T05:44:11;2.70;57.70
67182;DHT22;54114;53.524;49.396;2023-02-28T05:46:42;2.80;56.70
67182;DHT22;54114;53.524;49.396;2023-02-28T05:49:14;2.80;55.70
67182;DHT22;54114;53.524;49.396;2023-02-28T05:51:43;2.90;56.10
67182;DHT22;54114;53.524;49.396;2023-02-28T05:54:12;2.90;56.30
67182;DHT22;54114;53.524;49.396;2023-02-28T05:56:39;3.00;56.00
67182;DHT22;54114;53.524;49.396;2023-02-28T05:59:07;3.00;56.20
67182;DHT22;54114;53.524;49.396;2023-02-28T06:01:44;3.00;56.20
67182;DHT22;54114;53.524;49.396;2023-02-28T06:04:17;3.10;55.90
67182;DHT22;54114;53.524;49.396;2023-02-28T06:06:49;3.10;54.50
67182;DHT22;54114;53.524;49.396;2023-02-28T06:09:19;3.30;54.80
67182;DHT22;54114;53.524;49.396;2023-02-28T06:11:46;3.40;55.30
67182;DHT22;54114;53.524;49.396;2023-02-28T06:14:19;3.60;55.10
67182;DHT22;54114;53.524;49.396;2023-02-28T06:16:48;3.80;54.70
67182;DHT22;54114;53.524;49.396;2023-02-28T06:19:15;3.80;54.10
67182;DHT22;54114;53.524;49.396;2023-02-28T06:21:42;4.00;54.30
67182;DHT22;54114;53.524;49.396;2023-02-28T06:24:19;4.10;53.50
67182;DHT22;54114;53.524;49.396;2023-02-28T06:26:46;4.30;53.70
67182;DHT22;54114;53.524;49.396;2023-02-28T06:29:14;4.30;52.40
67182;DHT22;54114;53.524;49.396;2023-02-28T06:31:47;4.40;52.60
67182;DHT22;54114;53.524;49.396;2023-02-28T06:34:14;4.40;52.50
67182;DHT22;54114;53.524;49.396;2023-02-28T06:36:42;4.50;52.40
67182;DHT22;54114;53.524;49.396;2023-02-28T06:39:09;4.40;52.00
67182;DHT22;54114;53.524;49.396;2023-02-28T06:41:36;4.40;52.00
67182;DHT22;54114;53.524;49.396;2023-02-28T06:44:12;4.40;51.80
67182;DHT22;54114;53.524;49.396;2023-02-28T06:46:41;4.50;51.70
67182;DHT22;54114;53.524;49.396;2023-02-28T06:49:11;4.50;51.90
67182;DHT22;54114;53.524;49.396;2023-02-28T06:51:39;4.40;52.30
67182;DHT22;54114;53.524;49.396;2023-02-28T06:54:07;4.40;52.40
67182;DHT22;54114;53.524;49.396;2023-02-28T06:56:35;4.20;51.40
67182;DHT22;54114;53.524;49.396;2023-02-28T06:59:02;4.10;51.90
67182;DHT22;54114;53.524;49.396;2023-02-28T07:01:31;4.10;52.00
67182;DHT22;54114;53.524;49.396;2023-02-28T07:03:58;4.00;52.10
67182;DHT22;54114;53.524;49.396;2023-02-28T07:06:30;4.00;52.50
67182;DHT22;54114;53.524;49.396;2023-02-28T07:08:58;4.00;52.60
67182;DHT22;54114;53.524;49.396;2023-02-28T07:11:29;4.00;52.80
67182;DHT22;54114;53.524;49.396;2023-02-28T07:13:59;4.10;53.30
67182;DHT22;54114;53.524;49.396;2023-02-28T07:16:26;4.30;53.50
67182;DHT22;54114;53.524;49.396;2023-02-28T07:18:53;4.40;52.50
67182;DHT22;54114;53.524;49.396;2023-02-28T07:21:23;4.60;52.40
67182;DHT22;54114;53.524;49.396;2023-02-28T07:23:50;4.70;52.40
67182;DHT22;54114;53.524;49.396;2023-02-28T07:26:19;4.70;51.20
67182;DHT22;54114;53.524;49.396;2023-02-28T07:28:47;4.70;51.20
67182;DHT22;54114;53.524;49.396;2023-02-28T07:31:15;4.70;50.50
67182;DHT22;54114;53.524;49.396;2023-02-28T07:33:44;4.80;50.90
67182;DHT22;54114;53.524;49.396;2023-02-28T07:36:15;4.70;50.50
67182;DHT22;54114;53.524;49.396;2023-02-28T07:38:46;4.70;50.70
67182;DHT22;54114;53.524;49.396;2023-02-28T07:41:17;4.70;50.50
67182;DHT22;54114;53.524;49.396;2023-02-28T07:43:47;4.80;50.50
67182;DHT22;54114;53.524;49.396;2023-02-28T07:46:15;4.90;50.50
67182;DHT22;54114;53.524;49.396;2023-02-28T07:48:43;5.00;50.50
67182;DHT22;54114;53.524;49.396;2023-02-28T07:51:12;4.90;50.00
67182;DHT22;54114;53.524;49.396;2023-02-28T07:53:39;4.80;50.70
67182;DHT22;54114;53.524;49.396;2023-02-28T07:56:08;4.80;50.30
67182;DHT22;54114;53.524;49.396;2023-02-28T07:58:36;4.70;50.10
67182;DHT22;54114;53.524;49.396;2023-02-28T08:01:11;4.70;50.40
67182;DHT22;54114;53.524;49.396;2023-02-28T08:03:39;4.60;50.50
67182;DHT22;54114;53.524;49.396;2023-02-28T08:06:11;4.60;50.00
67182;DHT22;54114;53.524;49.396;2023-02-28T08:08:42;4.60;50.70
67182;DHT22;54114;53.524;49.396;2023-02-28T08:11:12;4.60;50.60
67182;DHT22;54114;53.524;49.396;2023-02-28T08:13:39;4.40;50.20
67182;DHT22;54114;53.524;49.396;2023-02-28T08:16:10;4.10;50.70
67182;DHT22;54114;53.524;49.396;2023-02-28T08:18:37;3.80;51.40
67182;DHT22;54114;53.524;49.396;2023-02-28T08:21:10;3.70;51.80
67182;DHT22;54114;53.524;49.396;2023-02-28T08:23:37;3.50;52.20
67182;DHT22;54114;53.524;49.396;2023-02-28T08:26:06;3.60;52.80
67182;DHT22;54114;53.524;49.396;2023-02-28T08:28:38;3.60;52.50
67182;DHT22;54114;53.524;49.396;2023-02-28T08:31:13;3.60;52.50
67182;DHT22;54114;53.524;49.396;2023-02-28T08:33:44;3.50;52.70
67182;DHT22;54114;53.524;49.396;2023-02-28T08:36:11;3.40;53.00
67182;DHT22;54114;53.524;49.396;2023-02-28T08:38:38;3.40;52.80
67182;DHT22;54114;53.524;49.396;2023-02-28T08:41:07;3.40;53.10
67182;DHT22;54114;53.524;49.396;2023-02-28T08:43:39;3.50;53.20
67182;DHT22;54114;53.524;49.396;2023-02-28T08:46:11;3.50;53.10
67182;DHT22;54114;53.524;49.396;2023-02-28T08:48:39;3.60;53.40
67182;DHT22;54114;53.524;49.396;2023-02-28T08:51:15;3.60;53.30
67182;DHT22;54114;53.524;49.396;2023-02-28T08:53:48;3.70;53.60
67182;DHT22;54114;53.524;49.396;2023-02-28T08:56:17;3.90;54.10
67182;DHT22;54114;53.524;49.396;2023-02-28T08:58:44;4.40;53.10
67182;DHT22;54114;53.524;49.396;2023-02-28T09:01:14;4.70;51.30
67182;DHT22;54114;53.524;49.396;2023-02-28T09:03:43;5.00;50.70
67182;DHT22;54114;53.524;49.396;2023-02-28T09:06:15;5.30;49.80
67182;DHT22;54114;53.524;49.396;2023-02-28T09:08:42;5.40;49.00
67182;DHT22;54114;53.524;49.396;2023-02-28T09:11:09;5.50;48.60
67182;DHT22;54114;53.524;49.396;2023-02-28T09:13:38;5.50;49.80
67182;DHT22;54114;53.524;49.396;2023-02-28T09:16:07;5.70;49.70
67182;DHT22;54114;53.524;49.396;2023-02-28T09:18:39;6.00;48.90
67182;DHT22;54114;53.524;49.396;2023-02-28T09:21:15;6.00;47.20
67182;DHT22;54114;53.524;49.396;2023-02-28T09:23:44;6.10;47.50
67182;DHT22;54114;53.524;49.396;2023-02-28T09:26:24;6.30;47.50
67182;DHT22;54114;53.524;49.396;2023-02-28T09:28:53;6.70;47.20
67182;DHT22;54114;53.524;49.396;2023-02-28T09:31:23;6.90;46.20
67182;DHT22;54114;53.524;49.396;2023-02-28T09:33:54;6.80;45.30
67182;DHT22;54114;53.524;49.396;2023-02-28T09:36:23;6.50;45.00
67182;DHT22;54114;53.524;49.396;2023-02-28T09:38:53;6.30;45.50
67182;DHT22;54114;53.524;49.396;2023-02-28T09:41:24;6.10;45.90
67182;DHT22;54114;53.524;49.396;2023-02-28T09:43:59;6.10;45.50
67182;DHT22;54114;53.524;49.396;2023-02-28T09:46:48;5.90;45.70
67182;DHT22;54114;53.524;49.396;2023-02-28T09:49:24;5.60;45.80
67182;DHT22;54114;53.524;49.396;2023-02-28T09:52:01;5.40;46.70
67182;DHT22;54114;53.524;49.396;2023-02-28T09:54:36;5.30;47.20
67182;DHT22;54114;53.524;49.396;2023-02-28T09:57:07;5.40;47.80
67182;DHT22;54114;53.524;49.396;2023-02-28T10:05:32;6.40;46.00
67182;DHT22;54114;53.524;49.396;2023-02-28T10:08:23;6.30;45.90
67182;DHT22;54114;53.524;49.396;2023-02-28T10:11:01;6.40;46.40
67182;DHT22;54114;53.524;49.396;2023-02-28T10:17:19;7.00;45.20
67182;DHT22;54114;53.524;49.396;2023-02-28T10:19:51;7.00;44.90
67182;DHT22;54114;53.524;49.396;2023-02-28T10:22:53;6.90;44.80
67182;DHT22;54114;53.524;49.396;2023-02-28T10:25:29;6.70;45.30
67182;DHT22;54114;53.524;49.396;2023-02-28T10:28:16;6.30;45.80
67182;DHT22;54114;53.524;49.396;2023-02-28T10:30:51;5.90;46.80
67182;DHT22;54114;53.524;49.396;2023-02-28T10:33:33;5.60;47.80
67182;DHT22;54114;53.524;49.396;2023-02-28T10:36:05;5.50;48.70
67182;DHT22;54114;53.524;49.396;2023-02-28T10:38:38;5.40;48.60
67182;DHT22;54114;53.524;49.396;2023-02-28T10:44:21;5.00;50.00
67182;DHT22;54114;53.524;49.396;2023-02-28T10:46:51;4.90;49.80
67182;DHT22;54114;53.524;49.396;2023-02-28T10:49:23;4.80;50.20
67182;DHT22;54114;53.524;49.396;2023-02-28T10:51:55;4.70;50.60
67182;DHT22;54114;53.524;49.396;2023-02-28T10:54:32;4.70;50.90
67182;DHT22;54114;53.524;49.396;2023-02-28T10:57:22;4.80;50.90
67182;DHT22;54114;53.524;49.396;2023-02-28T10:59:53;4.90;50.80
67182;DHT22;54114;53.524;49.396;2023-02-28T11:02:37;4.80;50.60
67182;DHT22;54114;53.524;49.396;2023-02-28T11:10:30;4.80;51.00
67182;DHT22;54114;53.524;49.396;2023-02-28T11:13:03;4.90;51.40
67182;DHT22;54114;53.524;49.396;2023-02-28T11:15:34;4.90;50.70
67182;DHT22;54114;53.524;49.396;2023-02-28T11:18:06;4.80;50.90
67182;DHT22;54114;53.524;49.396;2023-02-28T11:20:51;4.80;50.90
67182;DHT22;54114;53.524;49.396;2023-02-28T11:23:23;4.70;51.40
67182;DHT22;54114;53.524;49.396;2023-02-28T11:25:59;4.60;50.90
67182;DHT22;54114;53.524;49.396;2023-02-28T11:28:32;4.60;51.50
67182;DHT22;54114;53.524;49.396;2023-02-28T11:31:06;4.60;51.40
67182;DHT22;54114;53.524;49.396;2023-02-28T11:33:50;4.60;51.50
67182;DHT22;54114;53.524;49.396;2023-02-28T11:36:24;4.60;51.70
67182;DHT22;54114;53.524;49.396;2023-02-28T11:38:58;4.50;51.00
67182;DHT22;54114;53.524;49.396;2023-02-28T11:47:34;4.50;52.50
67182;DHT22;54114;53.524;49.396;2023-02-28T11:50:33;4.50;52.30
67182;DHT22;54114;53.524;49.396;2023-02-28T11:56:09;4.40;52.00
67182;DHT22;54114;53.524;49.396;2023-02-28T12:07:18;4.20;52.70
67182;DHT22;54114;53.524;49.396;2023-02-28T12:12:57;4.10;53.70
67182;DHT22;54114;53.524;49.396;2023-02-28T12:22:17;4.10;53.60
67182;DHT22;54114;53.524;49.396;2023-02-28T12:28:13;4.10;53.20
67182;DHT22;54114;53.524;49.396;2023-02-28T12:34:12;4.00;53.10
67182;DHT22;54114;53.524;49.396;2023-02-28T12:36:48;4.00;53.30
67182;DHT22;54114;53.524;49.396;2023-02-28T12:39:30;4.00;53.60
67182;DHT22;54114;53.524;49.396;2023-02-28T12:42:10;4.00;53.70
67182;DHT22;54114;53.524;49.396;2023-02-28T12:44:51;4.00;53.90
67182;DHT22;54114;53.524;49.396;2023-02-28T12:47:22;4.00;53.70
67182;DHT22;54114;53.524;49.396;2023-02-28T12:50:10;3.90;53.70
67182;DHT22;54114;53.524;49.396;2023-02-28T12:53:06;3.80;53.80
67182;DHT22;54114;53.524;49.396;2023-02-28T12:56:03;3.80;54.30
67182;DHT22;54114;53.524;49.396;2023-02-28T12:58:49;3.70;53.60
67182;DHT22;54114;53.524;49.396;2023-02-28T13:01:25;3.60;54.10
67182;DHT22;54114;53.524;49.396;2023-02-28T13:10:46;3.40;54.40
67182;DHT22;54114;53.524;49.396;2023-02-28T13:13:25;3.30;54.90
67182;DHT22;54114;53.524;49.396;2023-02-28T13:16:08;3.20;55.30
67182;DHT22;54114;53.524;49.396;2023-02-28T13:18:39;3.20;55.60
67182;DHT22;54114;53.524;49.396;2023-02-28T13:21:26;3.10;55.60
67182;DHT22;54114;53.524;49.396;2023-02-28T13:29:30;2.70;56.60
67182;DHT22;54114;53.524;49.396;2023-02-28T13:34:35;2.40;57.50
67182;DHT22;54114;53.524;49.396;2023-02-28T13:42:32;2.00;58.80
67182;DHT22;54114;53.524;49.396;2023-02-28T13:47:52;1.70;59.90
67182;DHT22;54114;53.524;49.396;2023-02-28T13:56:01;1.40;61.30
67182;DHT22;54114;53.524;49.396;2023-02-28T14:07:30;1.00;63.50
67182;DHT22;54114;53.524;49.396;2023-02-28T14:10:15;0.90;64.30
67182;DHT22;54114;53.524;49.396;2023-02-28T14:13:13;0.80;64.80
67182;DHT22;54114;53.524;49.396;2023-02-28T14:16:00;0.80;65.30
67182;DHT22;54114;53.524;49.396;2023-02-28T14:18:36;0.70;65.90
67182;DHT22;54114;53.524;49.396;2023-02-28T14:21:09;0.60;66.30
67182;DHT22;54114;53.524;49.396;2023-02-28T14:24:03;0.50;66.70
67182;DHT22;54114;53.524;49.396;2023-02-28T14:31:18;0.40;67.50
67182;DHT22;54114;53.524;49.396;2023-02-28T14:38:50;0.20;68.50
67182;DHT22;54114;53.524;49.396;2023-02-28T14:41:33;0.20;68.40
67182;DHT22;54114;53.524;49.396;2023-02-28T14:46:57;0.10;68.40
67182;DHT22;54114;53.524;49.396;2023-02-28T14:49:32;0.10;68.60
67182;DHT22;54114;53.524;49.396;2023-02-28T14:52:25;0.10;68.60
67182;DHT22;54114;53.524;49.396;2023-02-28T14:54:59;0.00;68.80
67182;DHT22;54114;53.524;49.396;2023-02-28T14:57:41;0.00;68.80
67182;DHT22;54114;53.524;49.396;2023-02-28T15:00:26;0.00;68.80
67182;DHT22;54114;53.524;49.396;2023-02-28T15:02:55;0.00;68.90
67182;DHT22;54114;53.524;49.396;2023-02-28T15:05:31;-0.10;68.90
67182;DHT22;54114;53.524;49.396;2023-02-28T15:08:17;-0.10;68.90
67182;DHT22;54114;53.524;49.396;2023-02-28T15:10:55;-0.10;69.00
67182;DHT22;54114;53.524;49.396;2023-02-28T15:13:31;-0.20;69.10
67182;DHT22;54114;53.524;49.396;2023-02-28T15:16:10;-0.20;69.20
67182;DHT22;54114;53.524;49.396;2023-02-28T15:19:05;-0.20;69.30
67182;DHT22;54114;53.524;49.396;2023-02-28T15:21:38;-0.20;69.30
67182;DHT22;54114;53.524;49.396;2023-02-28T15:27:32;-0.30;69.40
67182;DHT22;54114;53.524;49.396;2023-02-28T15:30:06;-0.40;69.50
67182;DHT22;54114;53.524;49.396;2023-02-28T15:32:39;-0.40;69.60
67182;DHT22;54114;53.524;49.396;2023-02-28T15:38:02;-0.40;69.70
67182;DHT22;54114;53.524;49.396;2023-02-28T15:40:45;-0.40;69.80
67182;DHT22;54114;53.524;49.396;2023-02-28T15:43:32;-0.50;69.80
67182;DHT22;54114;53.524;49.396;2023-02-28T15:46:02;-0.50;69.80
67182;DHT22;54114;53.524;49.396;2023-02-28T15:48:37;-0.50;69.90
67182;DHT22;54114;53.524;49.396;2023-02-28T15:51:35;-0.60;69.90
67182;DHT22;54114;53.524;49.396;2023-02-28T15:54:06;-0.60;70.10
67182;DHT22;54114;53.524;49.396;2023-02-28T15:56:39;-0.60;70.00
67182;DHT22;54114;53.524;49.396;2023-02-28T15:59:23;-0.60;70.10
67182;DHT22;54114;53.524;49.396;2023-02-28T16:02:18;-0.70;70.10
67182;DHT22;54114;53.524;49.396;2023-02-28T16:04:58;-0.70;70.00
67182;DHT22;54114;53.524;49.396;2023-02-28T16:07:36;-0.70;70.00
67182;DHT22;54114;53.524;49.396;2023-02-28T16:10:05;-0.70;70.00
67182;DHT22;54114;53.524;49.396;2023-02-28T16:12:35;-0.70;70.10
67182;DHT22;54114;53.524;49.396;2023-02-28T16:15:20;-0.80;70.10
67182;DHT22;54114;53.524;49.396;2023-02-28T16:17:55;-0.80;70.00
67182;DHT22;54114;53.524;49.396;2023-02-28T16:20:28;-0.80;70.00
67182;DHT22;54114;53.524;49.396;2023-02-28T16:22:56;-0.80;70.00
67182;DHT22;54114;53.524;49.396;2023-02-28T16:25:36;-0.80;70.00
67182;DHT22;54114;53.524;49.396;2023-02-28T16:28:53;-0.90;69.90
67182;DHT22;54114;53.524;49.396;2023-02-28T16:31:03;-0.80;69.90
67182;DHT22;54114;53.524;49.396;2023-02-28T16:33:32;-0.90;69.90
67182;DHT22;54114;53.524;49.396;2023-02-28T16:36:02;-0.90;69.80
67182;DHT22;54114;53.524;49.396;2023-02-28T16:38:31;-0.90;69.80
67182;DHT22;54114;53.524;49.396;2023-02-28T16:41:02;-0.90;69.80
67182;DHT22;54114;53.524;49.396;2023-02-28T16:43:31;-0.90;69.90
67182;DHT22;54114;53.524;49.396;2023-02-28T16:45:58;-1.00;69.90
67182;DHT22;54114;53.524;49.396;2023-02-28T16:48:25;-1.00;69.90
67182;DHT22;54114;53.524;49.396;2023-02-28T16:50:52;-1.00;70.00
67182;DHT22;54114;53.524;49.396;2023-02-28T16:53:18;-1.00;70.00
67182;DHT22;54114;53.524;49.396;2023-02-28T16:55:45;-1.10;69.90
67182;DHT22;54114;53.524;49.396;2023-02-28T16:58:16;-1.10;70.00
67182;DHT22;54114;53.524;49.396;2023-02-28T17:00:43;-1.00;69.90
67182;DHT22;54114;53.524;49.396;2023-02-28T17:03:28;-1.00;69.80
67182;DHT22;54114;53.524;49.396;2023-02-28T17:05:55;-1.00;69.50
67182;DHT22;54114;53.524;49.396;2023-02-28T17:08:22;-1.00;69.30
67182;DHT22;54114;53.524;49.396;2023-02-28T17:10:48;-0.90;69.20
67182;DHT22;54114;53.524;49.396;2023-02-28T17:13:15;-0.90;69.00
67182;DHT22;54114;53.524;49.396;2023-02-28T17:15:45;-0.90;68.90
67182;DHT22;54114;53.524;49.396;2023-02-28T17:18:19;-0.80;68.60
67182;DHT22;54114;53.524;49.396;2023-02-28T17:20:47;-0.70;68.40
67182;DHT22;54114;53.524;49.396;2023-02-28T17:23:14;-0.70;68.10
67182;DHT22;54114;53.524;49.396;2023-02-28T17:25:41;-0.60;67.90
67182;DHT22;54114;53.524;49.396;2023-02-28T17:28:20;-0.60;68.30
67182;DHT22;54114;53.524;49.396;2023-02-28T17:30:48;-0.60;67.40
67182;DHT22;54114;53.524;49.396;2023-02-28T17:33:20;-0.60;67.20
67182;DHT22;54114;53.524;49.396;2023-02-28T17:35:48;-0.60;67.10
67182;DHT22;54114;53.524;49.396;2023-02-28T17:38:17;-0.50;67.20
67182;DHT22;54114;53.524;49.396;2023-02-28T17:40:44;-0.50;67.00
67182;DHT22;54114;53.524;49.396;2023-02-28T17:43:11;-0.50;66.90
67182;DHT22;54114;53.524;49.396;2023-02-28T17:45:41;-0.50;66.90
67182;DHT22;54114;53.524;49.396;2023-02-28T17:48:12;-0.50;66.60
67182;DHT22;54114;53.524;49.396;2023-02-28T17:50:42;-0.50;66.60
67182;DHT22;54114;53.524;49.396;2023-02-28T17:53:09;-0.50;66.50
67182;DHT22;54114;53.524;49.396;2023-02-28T17:55:36;-0.50;66.60
67182;DHT22;54114;53.524;49.396;2023-02-28T17:58:05;-0.50;66.80
67182;DHT22;54114;53.524;49.396;2023-02-28T18:00:31;-0.60;66.80
67182;DHT22;54114;53.524;49.396;2023-02-28T18:03:01;-0.60;66.90
67182;DHT22;54114;53.524;49.396;2023-02-28T18:05:28;-0.60;67.10
67182;DHT22;54114;53.524;49.396;2023-02-28T18:07:57;-0.60;67.40
67182;DHT22;54114;53.524;49.396;2023-02-28T18:10:24;-0.70;67.40
67182;DHT22;54114;53.524;49.396;2023-02-28T18:12:53;-0.70;67.60
67182;DHT22;54114;53.524;49.396;2023-02-28T18:15:21;-0.70;67.90
67182;DHT22;54114;53.524;49.396;2023-02-28T18:17:49;-0.70;68.00